createdAt,value
2022-12-04T00:03:21.747Z,27.30
2022-12-04T00:08:20.949Z,22.80
2022-12-04T00:13:20.182Z,26.00
2022-12-04T00:18:18.499Z,27.20
2022-12-04T00:23:19.694Z,34.30
2022-12-04T00:28:18.901Z,36.80
2022-12-04T00:33:16.114Z,33.80
2022-12-04T00:38:17.341Z,34.80
2022-12-04T00:43:15.620Z,30.10
2022-12-04T00:48:14.853Z,37.60
2022-12-04T00:53:14.129Z,40.20
2022-12-04T00:58:12.681Z,44.50
2022-12-04T01:03:11.643Z,41.10
2022-12-04T01:08:13.776Z,45.30
2022-12-04T01:13:11.048Z,75.30
2022-12-04T01:18:10.335Z,58.10
2022-12-04T01:23:09.525Z,59.60
2022-12-04T01:28:08.793Z,43.00
2022-12-04T01:33:07.997Z,46.70
2022-12-04T01:38:09.303Z,89.80
2022-12-04T01:43:06.608Z,78.70
2022-12-04T01:48:06.894Z,72.40
2022-12-04T01:53:06.194Z,70.30
2022-12-04T01:58:05.470Z,67.70
2022-12-04T02:03:03.805Z,63.80
2022-12-04T02:08:02.951Z,61.40
2022-12-04T02:13:03.218Z,54.80
2022-12-04T02:18:01.507Z,50.20
2022-12-04T02:23:00.795Z,45.10
2022-12-04T02:28:01.102Z,39.50
2022-12-04T02:33:00.417Z,39.30
2022-12-04T02:37:58.567Z,34.50
2022-12-04T02:42:57.707Z,32.90
2022-12-04T02:47:57.038Z,34.00
2022-12-04T02:52:58.361Z,32.00
2022-12-04T02:57:56.675Z,29.20
2022-12-04T03:02:55.066Z,29.40
2022-12-04T03:07:54.279Z,28.60
2022-12-04T03:12:53.414Z,28.00
2022-12-04T03:17:52.735Z,28.30
2022-12-04T03:22:53.042Z,27.40
2022-12-04T03:27:51.365Z,25.00
2022-12-04T03:32:51.714Z,22.70
2022-12-04T03:37:50.834Z,22.70
2022-12-04T03:42:50.166Z,21.40
2022-12-04T03:47:48.303Z,21.60
2022-12-04T03:52:46.602Z,21.80
2022-12-04T03:57:47.931Z,18.70
2022-12-04T04:02:47.259Z,18.60
2022-12-04T04:07:45.402Z,16.60
2022-12-04T04:12:44.680Z,15.90
2022-12-04T04:17:43.983Z,14.90
2022-12-04T04:22:43.295Z,16.10
2022-12-04T04:27:42.600Z,15.20
2022-12-04T04:32:42.891Z,16.10
2022-12-04T04:37:41.203Z,15.60
2022-12-04T04:42:40.528Z,15.20
2022-12-04T04:47:39.837Z,14.40
2022-12-04T04:52:40.154Z,14.70
2022-12-04T04:57:38.463Z,14.70
2022-12-04T05:02:38.813Z,14.20
2022-12-04T05:07:36.975Z,13.60
2022-12-04T05:12:37.073Z,14.00
2022-12-04T05:17:36.355Z,12.90
2022-12-04T05:22:34.656Z,12.10
2022-12-04T05:27:33.923Z,12.30
2022-12-04T05:32:34.202Z,13.80
2022-12-04T05:37:32.520Z,13.10
2022-12-04T05:42:31.810Z,13.00
2022-12-04T05:47:31.100Z,12.80
2022-12-04T05:52:31.413Z,12.60
2022-12-04T05:57:30.145Z,11.80
2022-12-04T06:02:29.013Z,11.00
2022-12-04T06:07:27.222Z,11.60
2022-12-04T06:12:27.331Z,10.30
2022-12-04T06:17:26.660Z,11.00
2022-12-04T06:22:26.970Z,11.00
2022-12-04T06:27:28.023Z,10.70
2022-12-04T06:32:25.478Z,10.30
2022-12-04T06:37:22.796Z,10.50
2022-12-04T06:42:24.105Z,10.70
2022-12-04T06:47:23.389Z,9.90
2022-12-04T06:52:21.670Z,9.50
2022-12-04T06:57:20.978Z,12.70
2022-12-04T07:02:21.426Z,28.10
2022-12-04T07:07:19.544Z,44.90
2022-12-04T07:12:19.671Z,36.30
2022-12-04T07:17:19.045Z,26.10
2022-12-04T07:22:18.145Z,16.50
2022-12-04T07:27:17.445Z,14.30
2022-12-04T07:32:16.820Z,13.80
2022-12-04T07:37:14.932Z,13.60
2022-12-04T07:42:13.242Z,13.20
2022-12-04T07:47:13.553Z,12.50
2022-12-04T07:52:12.861Z,13.20
2022-12-04T07:57:12.138Z,12.70
2022-12-04T08:02:12.453Z,13.30
2022-12-04T08:07:10.760Z,13.40
2022-12-04T08:12:10.063Z,11.80
2022-12-04T08:17:10.430Z,13.20
2022-12-04T08:22:09.567Z,18.20
2022-12-04T08:27:08.869Z,13.90
2022-12-04T08:32:08.167Z,12.70
2022-12-04T08:37:06.474Z,14.50
2022-12-04T08:42:05.353Z,14.60
2022-12-04T08:47:06.856Z,12.80
2022-12-04T08:52:04.173Z,13.30
2022-12-04T08:57:20.512Z,12.60
2022-12-04T09:02:04.720Z,12.40
2022-12-04T09:07:03.278Z,12.60
2022-12-04T09:12:01.077Z,13.20
2022-12-04T09:17:01.684Z,10.50
2022-12-04T09:22:00.955Z,10.00
2022-12-04T09:26:58.973Z,11.70
2022-12-04T09:32:00.352Z,12.20
2022-12-04T09:36:59.637Z,13.40
2022-12-04T09:41:57.891Z,13.90
2022-12-04T09:46:57.170Z,14.20
2022-12-04T09:51:56.222Z,14.20
2022-12-04T09:56:54.427Z,13.70
2022-12-04T10:01:53.676Z,13.20
2022-12-04T10:06:53.940Z,24.80
2022-12-04T10:11:52.840Z,107.80
2022-12-04T10:16:52.329Z,80.00
2022-12-04T10:21:50.766Z,111.60
2022-12-04T10:26:49.747Z,127.80
2022-12-04T10:31:48.884Z,97.40
2022-12-04T10:36:49.021Z,84.40
2022-12-04T10:41:49.578Z,63.10
2022-12-04T10:46:46.989Z,51.70
2022-12-04T10:51:45.743Z,45.80
2022-12-04T10:56:46.030Z,47.00
2022-12-04T11:01:45.369Z,39.50
2022-12-04T11:06:43.522Z,37.40
2022-12-04T11:11:44.855Z,39.60
2022-12-04T11:16:42.228Z,35.40
2022-12-04T11:21:42.424Z,31.80
2022-12-04T11:26:40.883Z,28.40
2022-12-04T11:31:40.269Z,27.60
2022-12-04T11:36:42.097Z,25.10
2022-12-04T11:41:40.745Z,25.50
2022-12-04T11:46:38.123Z,27.10
2022-12-04T11:51:37.286Z,22.70
2022-12-04T11:56:36.112Z,21.30
2022-12-04T12:01:35.339Z,22.80
2022-12-04T12:06:35.766Z,21.40
2022-12-04T12:11:33.737Z,20.50
2022-12-04T12:16:33.986Z,19.50
2022-12-04T12:21:33.484Z,20.20
2022-12-04T12:26:31.608Z,19.30
2022-12-04T12:31:31.870Z,18.80
2022-12-04T12:36:30.098Z,18.30
2022-12-04T12:41:29.628Z,18.50
2022-12-04T12:46:34.831Z,17.20
2022-12-04T12:51:30.487Z,16.40
2022-12-04T12:56:26.908Z,16.20
2022-12-04T13:01:26.147Z,15.50
2022-12-04T13:06:28.331Z,14.20
2022-12-04T13:11:24.490Z,15.50
2022-12-04T13:16:24.777Z,14.00
2022-12-04T13:21:24.950Z,13.80
2022-12-04T13:26:23.113Z,20.60
2022-12-04T13:31:21.313Z,14.50
2022-12-04T13:36:20.513Z,14.20
2022-12-04T13:41:19.680Z,15.10
2022-12-04T13:46:19.911Z,15.00
2022-12-04T13:51:18.146Z,15.80
2022-12-04T13:56:18.295Z,16.00
2022-12-04T14:01:16.690Z,15.00
2022-12-04T14:06:15.968Z,55.40
2022-12-04T14:11:16.860Z,81.70
2022-12-04T14:16:14.535Z,58.20
2022-12-04T14:21:13.909Z,54.30
2022-12-04T14:26:13.905Z,45.80
2022-12-04T14:31:12.473Z,52.70
2022-12-04T14:36:11.362Z,40.50
2022-12-04T14:41:10.697Z,34.30
2022-12-04T14:46:11.015Z,92.90
2022-12-04T14:51:07.932Z,104.50
2022-12-04T14:56:09.043Z,137.10
2022-12-04T15:01:07.627Z,181.70
2022-12-04T15:06:10.656Z,127.00
2022-12-04T15:11:07.050Z,114.50
2022-12-04T15:16:15.641Z,95.00
2022-12-04T15:21:04.440Z,79.60
2022-12-04T15:26:06.635Z,180.00
2022-12-04T15:31:03.797Z,116.60
2022-12-04T15:36:06.220Z,96.70
2022-12-04T15:41:03.614Z,87.40
2022-12-04T15:46:00.406Z,88.80
2022-12-04T15:50:58.655Z,122.80
2022-12-04T15:55:59.567Z,103.60
2022-12-04T16:00:58.109Z,69.90
2022-12-04T16:05:57.315Z,65.60
2022-12-04T16:10:56.237Z,54.90
2022-12-04T16:15:55.868Z,43.00
2022-12-04T16:20:56.836Z,32.50
2022-12-04T16:25:54.404Z,32.90
2022-12-04T16:30:52.674Z,30.40
2022-12-04T16:35:52.893Z,31.10
2022-12-04T16:40:52.090Z,29.30
2022-12-04T16:45:53.051Z,29.00
2022-12-04T16:50:52.555Z,28.40
2022-12-04T16:55:50.787Z,27.10
2022-12-04T17:00:49.015Z,26.80
2022-12-04T17:05:48.901Z,27.40
2022-12-04T17:10:47.494Z,25.30
2022-12-04T17:15:47.496Z,26.60
2022-12-04T17:20:46.924Z,27.30
2022-12-04T17:25:45.136Z,27.00
2022-12-04T17:30:44.323Z,25.70
2022-12-04T17:35:47.326Z,25.30
2022-12-04T17:40:43.717Z,21.30
2022-12-04T17:45:41.854Z,28.80
2022-12-04T17:50:41.886Z,26.10
2022-12-04T17:55:41.179Z,28.20
2022-12-04T18:00:39.081Z,29.10
2022-12-04T18:05:39.266Z,27.80
2022-12-04T18:10:37.720Z,27.00
2022-12-04T18:15:37.134Z,24.50
2022-12-04T18:20:37.264Z,22.30
2022-12-04T18:25:37.593Z,36.10
2022-12-04T18:30:36.740Z,66.40
2022-12-04T18:35:33.590Z,54.90
2022-12-04T18:40:33.116Z,49.50
2022-12-04T18:45:33.333Z,42.10
2022-12-04T18:50:31.575Z,55.30
2022-12-04T18:55:31.526Z,55.10
2022-12-04T19:00:29.982Z,35.30
2022-12-04T19:05:31.291Z,34.90
2022-12-04T19:10:28.717Z,70.90
2022-12-04T19:15:27.879Z,78.90
2022-12-04T19:20:28.124Z,65.00
2022-12-04T19:25:26.348Z,103.50
2022-12-04T19:30:25.447Z,108.10
2022-12-04T19:35:26.399Z,93.10
2022-12-04T19:40:24.069Z,89.20
2022-12-04T19:45:24.077Z,56.50
2022-12-04T19:50:22.517Z,113.50
2022-12-04T19:55:21.691Z,94.30
2022-12-04T20:00:21.473Z,88.00
2022-12-04T20:05:20.224Z,130.20
2022-12-04T20:10:23.979Z,110.10
2022-12-04T20:15:20.316Z,120.20
2022-12-04T20:20:22.007Z,143.10
2022-12-04T20:25:16.743Z,69.40
2022-12-04T20:30:16.413Z,62.00
2022-12-04T20:35:15.495Z,50.10
2022-12-04T20:40:15.713Z,87.30
2022-12-04T20:45:14.688Z,91.70
2022-12-04T20:50:14.161Z,83.70
2022-12-04T20:55:12.335Z,71.90
2022-12-04T21:00:12.447Z,70.30
2022-12-04T21:05:11.511Z,80.90
2022-12-04T21:10:10.043Z,43.30
2022-12-04T21:15:09.845Z,46.40
2022-12-04T21:20:08.008Z,38.20
2022-12-04T21:25:07.368Z,39.70
2022-12-04T21:30:06.587Z,39.60
2022-12-04T21:35:06.761Z,36.80
2022-12-04T21:40:05.952Z,37.50
2022-12-04T21:45:04.208Z,32.80
2022-12-04T21:50:03.462Z,34.30
2022-12-04T21:55:02.638Z,32.20
2022-12-04T22:00:01.845Z,29.90
2022-12-04T22:05:02.030Z,35.80
2022-12-04T22:10:04.136Z,30.20
2022-12-04T22:15:00.564Z,25.80
2022-12-04T22:19:59.807Z,29.10
2022-12-04T22:25:00.372Z,24.20
2022-12-04T22:29:57.310Z,39.60
2022-12-04T22:34:56.492Z,79.30
2022-12-04T22:39:55.997Z,66.00
2022-12-04T22:44:55.085Z,59.50
2022-12-04T22:49:54.550Z,54.60
2022-12-04T22:54:53.631Z,51.10
2022-12-04T22:59:52.647Z,45.50
2022-12-04T23:04:51.909Z,40.70
2022-12-04T23:09:52.133Z,36.20
2022-12-04T23:14:50.309Z,33.80
2022-12-04T23:19:49.513Z,31.90
2022-12-04T23:24:49.681Z,28.20
2022-12-04T23:29:54.958Z,27.50
2022-12-04T23:34:48.117Z,26.20
2022-12-04T23:39:46.325Z,40.40
2022-12-04T23:44:44.503Z,54.70
2022-12-04T23:49:44.707Z,51.10
2022-12-04T23:54:44.894Z,42.30
2022-12-04T23:59:43.113Z,36.30
